Time;durP1;ratioP1;P1;durP2;ratioP2;P2;SDS_P1;SDS_P2;PMS_P1;PMS_P2;Temp;Humidity;BMP_temperature;BMP_pressure;BME280_temperature;BME280_humidity;BME280_pressure;Samples;Min_cycle;Max_cycle;Signal;HPM_P1;HPM_P2
2022/07/27 00:00:17;;;;;;;7.70;2.40;;;21.20;55.90;;;;;;4972056;28;20420;-71
2022/07/27 00:02:42;;;;;;;8.82;2.35;;;21.20;56.10;;;;;;4965847;28;20086;-71
2022/07/27 00:05:08;;;;;;;6.35;2.60;;;21.10;56.30;;;;;;4968499;28;20064;-72
2022/07/27 00:07:34;;;;;;;4.03;1.90;;;21.10;56.50;;;;;;4963879;28;20129;-71
2022/07/27 00:10:00;;;;;;;6.90;2.78;;;21.10;56.80;;;;;;4976067;28;20499;-72
2022/07/27 00:12:25;;;;;;;7.65;2.70;;;21.00;56.80;;;;;;4960583;28;20038;-73
2022/07/27 00:14:51;;;;;;;5.38;2.15;;;21.00;57.20;;;;;;4969859;28;20038;-71
2022/07/27 00:17:22;;;;;;;10.25;2.03;;;20.90;57.40;;;;;;4957953;28;20069;-71
2022/07/27 00:19:48;;;;;;;2.88;1.90;;;20.90;57.70;;;;;;4956695;28;20547;-70
2022/07/27 00:22:14;;;;;;;3.08;2.30;;;20.80;57.60;;;;;;4972318;28;20149;-71
2022/07/27 00:24:40;;;;;;;2.53;1.75;;;20.80;57.60;;;;;;4963671;28;20100;-70
2022/07/27 00:27:06;;;;;;;2.65;1.60;;;20.80;57.60;;;;;;4976979;28;20037;-70
2022/07/27 00:29:31;;;;;;;3.83;1.80;;;20.80;57.60;;;;;;4950493;28;20042;-71
2022/07/27 00:31:57;;;;;;;2.35;1.95;;;20.90;57.70;;;;;;4977386;28;20038;-70
2022/07/27 00:34:23;;;;;;;1.70;1.60;;;20.90;57.70;;;;;;4945103;28;20033;-70
2022/07/27 00:36:48;;;;;;;2.53;1.80;;;20.90;57.60;;;;;;4965818;28;20033;-71
2022/07/27 00:39:14;;;;;;;6.50;2.13;;;20.90;57.60;;;;;;4966506;28;20091;-70
2022/07/27 00:41:39;;;;;;;1.80;1.70;;;20.90;57.60;;;;;;4980521;28;20027;-70
2022/07/27 00:44:05;;;;;;;3.85;2.00;;;20.90;57.70;;;;;;4956683;28;20038;-73
2022/07/27 00:46:31;;;;;;;1.98;1.80;;;20.90;57.60;;;;;;4974041;28;20077;-70
2022/07/27 00:48:57;;;;;;;2.05;1.83;;;20.90;57.50;;;;;;4949030;28;20031;-71
2022/07/27 00:51:23;;;;;;;2.28;1.90;;;20.90;57.60;;;;;;4973489;28;20039;-70
2022/07/27 00:53:48;;;;;;;3.03;1.90;;;20.90;57.90;;;;;;4947460;28;20027;-70
2022/07/27 00:56:14;;;;;;;3.55;1.60;;;20.90;57.90;;;;;;4968813;28;20045;-70
2022/07/27 00:58:39;;;;;;;2.22;1.45;;;20.90;57.90;;;;;;4971090;28;20530;-71
2022/07/27 01:01:06;;;;;;;1.77;1.67;;;20.80;57.80;;;;;;4988461;28;20041;-71
2022/07/27 01:03:31;;;;;;;2.40;1.70;;;20.80;57.70;;;;;;4965314;28;20585;-70
2022/07/27 01:05:57;;;;;;;1.80;1.70;;;20.90;57.80;;;;;;4973566;28;20046;-70
2022/07/27 01:08:23;;;;;;;1.70;1.48;;;20.80;58.00;;;;;;4990866;28;20035;-73
2022/07/27 01:10:48;;;;;;;1.77;1.67;;;20.70;58.10;;;;;;4973241;28;20044;-70
2022/07/27 01:13:15;;;;;;;3.85;1.63;;;20.60;58.10;;;;;;4941723;28;20758;-71
2022/07/27 01:15:41;;;;;;;2.20;2.00;;;20.60;58.30;;;;;;4968967;28;20090;-70
2022/07/27 01:18:25;;;;;;;2.53;1.80;;;20.50;58.30;;;;;;4959101;28;20046;-70
2022/07/27 01:20:51;;;;;;;1.52;1.42;;;20.50;58.40;;;;;;4987640;28;20042;-70
2022/07/27 01:23:16;;;;;;;5.13;1.50;;;20.50;58.50;;;;;;4965288;28;20052;-73
2022/07/27 01:25:42;;;;;;;1.80;1.60;;;20.50;58.40;;;;;;4962225;28;20743;-73
2022/07/27 01:28:07;;;;;;;2.78;1.63;;;20.50;58.60;;;;;;4978429;28;20106;-70
2022/07/27 01:30:34;;;;;;;2.30;1.67;;;20.50;58.60;;;;;;4953112;28;20053;-71
2022/07/27 01:33:01;;;;;;;1.60;1.50;;;20.40;58.70;;;;;;4944954;28;20036;-71
2022/07/27 01:35:26;;;;;;;1.70;1.40;;;20.40;58.80;;;;;;4969514;28;20122;-71
2022/07/27 01:37:52;;;;;;;4.35;1.50;;;20.40;58.90;;;;;;4963933;28;20022;-72
2022/07/27 01:40:17;;;;;;;1.80;1.52;;;20.40;59.10;;;;;;4966777;28;20054;-71
2022/07/27 01:42:43;;;;;;;1.50;1.20;;;20.40;59.10;;;;;;4977067;28;20586;-71
2022/07/27 01:45:08;;;;;;;4.07;1.50;;;20.40;59.00;;;;;;4964597;28;20105;-71
2022/07/27 01:47:34;;;;;;;7.47;1.80;;;20.40;59.10;;;;;;4964247;28;20117;-70
2022/07/27 01:50:00;;;;;;;5.00;1.88;;;20.40;59.30;;;;;;4972494;28;20541;-74
2022/07/27 01:52:25;;;;;;;4.28;1.30;;;20.30;59.60;;;;;;4973928;28;20534;-70
2022/07/27 01:54:51;;;;;;;2.95;1.23;;;20.30;60.10;;;;;;4961885;28;20077;-70
2022/07/27 01:57:16;;;;;;;1.73;1.55;;;20.20;60.40;;;;;;4957323;28;20684;-71
2022/07/27 01:59:42;;;;;;;3.03;1.42;;;20.10;60.40;;;;;;4970981;28;20077;-72
2022/07/27 02:02:07;;;;;;;3.67;1.27;;;20.10;60.40;;;;;;4965005;28;20030;-70
2022/07/27 02:04:33;;;;;;;1.67;1.45;;;20.10;60.90;;;;;;4961537;28;20494;-71
2022/07/27 02:06:58;;;;;;;4.90;1.80;;;20.10;61.10;;;;;;4990963;28;20056;-71
2022/07/27 02:09:27;;;;;;;1.63;1.33;;;20.10;61.40;;;;;;4984915;28;20059;-71
2022/07/27 02:14:36;;;;;;;1.75;1.63;;;19.90;61.90;;;;;;4952833;28;20099;-72
2022/07/27 02:17:02;;;;;;;2.80;1.33;;;20.00;62.00;;;;;;4962898;28;20118;-71
2022/07/27 02:19:27;;;;;;;2.05;1.27;;;19.90;62.20;;;;;;4963252;28;20035;-72
2022/07/27 02:21:53;;;;;;;2.92;1.27;;;20.00;62.20;;;;;;4969116;28;20122;-71
2022/07/27 02:24:19;;;;;;;4.22;1.80;;;20.00;62.30;;;;;;4957771;28;20050;-72
2022/07/27 02:26:44;;;;;;;2.65;1.27;;;19.90;62.30;;;;;;4984923;28;20054;-72
2022/07/27 02:29:10;;;;;;;1.70;1.60;;;20.00;62.50;;;;;;4978033;28;20026;-71
2022/07/27 02:31:35;;;;;;;1.70;1.35;;;19.90;62.50;;;;;;4976668;28;20414;-71
2022/07/27 02:34:01;;;;;;;1.30;1.20;;;19.90;62.90;;;;;;4966432;28;20112;-72
2022/07/27 02:36:29;;;;;;;2.40;1.60;;;19.90;62.90;;;;;;4936379;28;20481;-72
2022/07/27 02:38:55;;;;;;;3.97;1.90;;;19.90;63.20;;;;;;4986010;28;20165;-71
2022/07/27 02:41:21;;;;;;;2.50;1.60;;;19.80;63.50;;;;;;4994434;28;20049;-72
2022/07/27 02:43:46;;;;;;;1.70;1.60;;;19.80;64.10;;;;;;4988558;28;20038;-72
2022/07/27 02:46:12;;;;;;;1.50;1.40;;;19.70;64.00;;;;;;4965359;28;20030;-71
2022/07/27 02:48:37;;;;;;;1.50;1.40;;;19.70;64.20;;;;;;4936047;28;20050;-71
2022/07/27 02:51:03;;;;;;;2.58;1.27;;;19.70;64.10;;;;;;4982783;28;20049;-73
2022/07/27 02:53:29;;;;;;;3.97;1.60;;;19.70;64.10;;;;;;4944569;28;20031;-71
2022/07/27 02:55:54;;;;;;;1.40;1.08;;;19.70;64.10;;;;;;4962252;28;20473;-72
2022/07/27 02:58:20;;;;;;;3.65;1.60;;;19.80;64.20;;;;;;4973090;28;20148;-72
2022/07/27 03:00:46;;;;;;;1.45;1.35;;;19.80;64.30;;;;;;4966211;28;20041;-71
2022/07/27 03:03:11;;;;;;;3.15;2.00;;;19.70;64.30;;;;;;4967199;28;20037;-72
2022/07/27 03:05:38;;;;;;;1.80;1.70;;;19.80;64.50;;;;;;4976414;28;20737;-73
2022/07/27 03:08:04;;;;;;;1.88;1.65;;;19.70;64.70;;;;;;4965624;28;20035;-73
2022/07/27 03:10:29;;;;;;;1.88;1.50;;;19.80;65.00;;;;;;4971195;28;20037;-72
2022/07/27 03:12:55;;;;;;;2.55;1.60;;;19.70;64.90;;;;;;4961581;28;20582;-72
2022/07/27 03:15:21;;;;;;;2.05;1.35;;;19.70;64.90;;;;;;4966381;28;20039;-72
2022/07/27 03:17:46;;;;;;;2.97;1.40;;;19.70;64.90;;;;;;4971077;28;20073;-72
2022/07/27 03:20:12;;;;;;;2.13;1.60;;;19.70;64.80;;;;;;4953962;28;20031;-72
2022/07/27 03:22:37;;;;;;;1.45;1.35;;;19.70;64.90;;;;;;4957708;28;20449;-72
2022/07/27 03:25:03;;;;;;;2.22;1.92;;;19.70;64.90;;;;;;4977761;28;20477;-72
2022/07/27 03:27:29;;;;;;;1.77;1.42;;;19.70;65.00;;;;;;4971463;28;20123;-72
2022/07/27 03:29:55;;;;;;;4.35;1.85;;;19.70;65.00;;;;;;4973392;28;20794;-71
2022/07/27 03:32:20;;;;;;;2.70;1.30;;;19.70;65.10;;;;;;4946613;28;20522;-72
2022/07/27 03:34:46;;;;;;;3.03;1.75;;;19.60;65.20;;;;;;4973976;28;20055;-72
2022/07/27 03:37:11;;;;;;;4.85;1.50;;;19.60;65.30;;;;;;4990763;28;20029;-72
2022/07/27 03:39:37;;;;;;;1.75;1.50;;;19.50;65.50;;;;;;4964687;28;20026;-71
2022/07/27 03:42:02;;;;;;;2.38;1.73;;;19.40;65.90;;;;;;4963930;28;20035;-72
2022/07/27 03:44:28;;;;;;;3.38;1.70;;;19.30;66.20;;;;;;4972397;28;20051;-71
2022/07/27 03:46:53;;;;;;;1.50;1.40;;;19.20;66.70;;;;;;4986479;28;20585;-72
2022/07/27 03:49:19;;;;;;;1.70;1.60;;;19.10;67.00;;;;;;4969217;28;20042;-73
2022/07/27 03:51:45;;;;;;;3.03;1.50;;;19.00;67.40;;;;;;4967844;28;20155;-71
2022/07/27 03:54:10;;;;;;;2.58;1.75;;;18.90;67.50;;;;;;4959766;28;20820;-72
2022/07/27 03:56:36;;;;;;;1.77;1.42;;;18.90;67.90;;;;;;4969605;28;20565;-72
2022/07/27 03:59:01;;;;;;;1.58;1.48;;;18.90;67.90;;;;;;4937165;28;20050;-71
2022/07/27 04:01:27;;;;;;;1.42;1.33;;;18.80;68.10;;;;;;4935485;28;20030;-71
2022/07/27 04:03:53;;;;;;;3.58;1.42;;;18.80;68.10;;;;;;4968371;28;20467;-71
2022/07/27 04:06:18;;;;;;;1.25;1.15;;;18.70;68.30;;;;;;4961975;28;20029;-72
2022/07/27 04:08:44;;;;;;;3.08;2.33;;;18.70;68.40;;;;;;4985727;28;20539;-72
2022/07/27 04:11:09;;;;;;;1.80;1.23;;;18.70;68.40;;;;;;4961289;28;20438;-71
2022/07/27 04:13:35;;;;;;;1.63;1.30;;;18.70;68.70;;;;;;4974540;28;20119;-70
2022/07/27 04:16:00;;;;;;;2.22;1.40;;;18.60;68.50;;;;;;4969819;28;20482;-71
2022/07/27 04:18:26;;;;;;;1.65;1.55;;;18.70;68.50;;;;;;4968953;28;20784;-72
2022/07/27 04:20:51;;;;;;;1.50;1.40;;;18.70;68.50;;;;;;4955831;28;20065;-70
2022/07/27 04:23:17;;;;;;;3.03;1.60;;;18.70;69.00;;;;;;4986825;28;20548;-74
2022/07/27 04:25:42;;;;;;;1.60;1.08;;;18.60;68.90;;;;;;4989918;28;20053;-72
2022/07/27 04:28:08;;;;;;;1.98;1.38;;;18.60;69.00;;;;;;4966477;28;20029;-70
2022/07/27 04:30:33;;;;;;;1.27;1.20;;;18.60;69.10;;;;;;4958381;28;20500;-70
2022/07/27 04:32:59;;;;;;;1.90;1.25;;;18.60;69.10;;;;;;4993791;28;20066;-72
2022/07/27 04:35:24;;;;;;;2.47;1.58;;;18.60;69.40;;;;;;4961310;28;20052;-72
2022/07/27 04:37:50;;;;;;;4.30;1.25;;;18.60;69.30;;;;;;4952344;28;20026;-71
2022/07/27 04:40:15;;;;;;;1.80;1.00;;;18.60;69.30;;;;;;4960016;28;20116;-71
2022/07/27 04:42:41;;;;;;;10.07;1.38;;;18.60;69.30;;;;;;4958677;28;20744;-71
2022/07/27 04:45:07;;;;;;;4.18;1.10;;;18.60;69.20;;;;;;4972416;28;20532;-71
2022/07/27 04:47:32;;;;;;;2.75;1.10;;;18.60;69.30;;;;;;4957289;28;20373;-71
2022/07/27 04:49:58;;;;;;;2.90;1.40;;;18.60;69.20;;;;;;4961207;28;20115;-71
2022/07/27 04:52:23;;;;;;;2.53;1.20;;;18.60;69.20;;;;;;4938010;28;20058;-71
2022/07/27 04:54:52;;;;;;;3.45;1.50;;;18.60;69.40;;;;;;4974927;28;20065;-72
2022/07/27 04:57:19;;;;;;;0.80;0.80;;;18.60;69.30;;;;;;4939059;28;20041;-71
2022/07/27 04:59:44;;;;;;;1.75;1.40;;;18.60;69.40;;;;;;4982793;28;20670;-71
2022/07/27 05:02:10;;;;;;;1.80;1.25;;;18.70;69.40;;;;;;4969942;28;20104;-71
2022/07/27 05:04:35;;;;;;;2.42;0.93;;;18.70;69.60;;;;;;4954283;28;20039;-71
2022/07/27 05:07:01;;;;;;;1.83;1.30;;;18.70;69.40;;;;;;4973564;28;20046;-71
2022/07/27 05:09:27;;;;;;;1.58;1.00;;;18.70;69.50;;;;;;4987017;28;20042;-71
2022/07/27 05:11:52;;;;;;;1.50;0.80;;;18.70;69.60;;;;;;4952472;28;20046;-73
2022/07/27 05:14:18;;;;;;;1.83;0.95;;;18.70;69.40;;;;;;4966856;28;20039;-72
2022/07/27 05:16:44;;;;;;;1.90;0.75;;;18.70;69.30;;;;;;4972262;28;20084;-72
2022/07/27 05:19:11;;;;;;;1.13;1.00;;;18.70;70.00;;;;;;4971464;28;20113;-71
2022/07/27 05:21:36;;;;;;;1.20;0.80;;;18.80;69.20;;;;;;4961148;28;20176;-72
2022/07/27 05:24:02;;;;;;;1.58;0.73;;;18.70;69.10;;;;;;4939716;28;20554;-70
2022/07/27 05:26:27;;;;;;;2.20;0.88;;;18.70;69.00;;;;;;4967706;28;20053;-70
2022/07/27 05:28:53;;;;;;;1.15;1.00;;;18.80;69.00;;;;;;4955583;28;20114;-71
2022/07/27 05:31:18;;;;;;;2.30;0.93;;;18.70;69.10;;;;;;4965399;28;20069;-72
2022/07/27 05:33:44;;;;;;;1.10;1.00;;;18.80;69.30;;;;;;4971904;28;20073;-70
2022/07/27 05:36:09;;;;;;;0.88;0.70;;;18.80;69.20;;;;;;4980593;28;20038;-71
2022/07/27 05:38:38;;;;;;;4.25;0.90;;;18.80;69.30;;;;;;4946264;28;20050;-70
2022/07/27 05:41:07;;;;;;;2.13;0.60;;;18.70;69.30;;;;;;4938886;28;20066;-70
2022/07/27 05:43:32;;;;;;;3.00;1.10;;;18.80;69.20;;;;;;4964114;28;20132;-70
2022/07/27 05:45:58;;;;;;;1.25;0.98;;;18.80;69.10;;;;;;4962937;28;20579;-69
2022/07/27 05:48:24;;;;;;;4.32;0.80;;;18.80;69.00;;;;;;4972134;28;20073;-70
2022/07/27 05:50:49;;;;;;;1.73;0.63;;;18.90;69.10;;;;;;4957281;28;20696;-69
2022/07/27 05:53:15;;;;;;;1.17;0.70;;;18.90;69.10;;;;;;4943077;28;20073;-70
2022/07/27 05:55:40;;;;;;;1.08;0.90;;;18.90;69.80;;;;;;4964526;28;20176;-69
2022/07/27 05:58:06;;;;;;;0.70;0.70;;;19.00;68.80;;;;;;4939725;28;20026;-71
2022/07/27 06:00:32;;;;;;;3.22;0.93;;;19.00;68.80;;;;;;4948507;28;20045;-71
2022/07/27 06:02:57;;;;;;;1.40;0.82;;;19.00;68.70;;;;;;4939182;28;20078;-71
2022/07/27 06:05:23;;;;;;;2.15;0.82;;;19.10;68.80;;;;;;4955236;28;20117;-71
2022/07/27 06:07:58;;;;;;;2.35;0.90;;;19.10;68.80;;;;;;4944007;28;20506;-70
2022/07/27 06:10:24;;;;;;;1.52;0.80;;;19.00;68.80;;;;;;4946186;28;20042;-72
2022/07/27 06:12:50;;;;;;;0.82;0.77;;;19.10;69.00;;;;;;4946190;28;20038;-71
2022/07/27 06:15:18;;;;;;;1.45;0.90;;;19.10;69.00;;;;;;4943481;28;20041;-72
2022/07/27 06:17:45;;;;;;;1.67;1.20;;;19.10;69.20;;;;;;4957498;28;20043;-71
2022/07/27 06:20:11;;;;;;;4.10;1.10;;;19.10;69.20;;;;;;4980569;28;20862;-71
2022/07/27 06:22:53;;;;;;;0.90;0.80;;;19.10;69.60;;;;;;4964391;28;20623;-71
2022/07/27 06:25:19;;;;;;;2.92;0.82;;;19.20;70.10;;;;;;4951873;28;20820;-71
2022/07/27 06:27:45;;;;;;;1.38;0.73;;;19.20;69.50;;;;;;4987714;28;20542;-72
2022/07/27 06:30:15;;;;;;;3.97;1.20;;;19.30;69.50;;;;;;4948284;28;20049;-71
2022/07/27 06:32:41;;;;;;;1.08;0.93;;;19.40;69.20;;;;;;4975892;28;20039;-71
2022/07/27 06:35:07;;;;;;;4.32;0.75;;;19.50;69.10;;;;;;4958709;28;20054;-72
2022/07/27 06:37:33;;;;;;;3.03;0.70;;;19.60;69.00;;;;;;4981913;28;20081;-72
2022/07/27 06:39:59;;;;;;;2.42;0.65;;;19.70;69.00;;;;;;4975396;28;20350;-71
2022/07/27 06:42:26;;;;;;;3.60;1.00;;;19.80;69.60;;;;;;4969065;28;20165;-72
2022/07/27 06:44:51;;;;;;;1.75;0.88;;;19.90;68.60;;;;;;4960259;28;20031;-71
2022/07/27 06:47:17;;;;;;;1.98;0.90;;;19.90;68.30;;;;;;4963367;28;20044;-73
2022/07/27 06:49:42;;;;;;;3.83;0.80;;;20.00;68.00;;;;;;4962541;28;20042;-72
2022/07/27 06:52:08;;;;;;;3.47;0.90;;;20.00;67.70;;;;;;4976668;28;20031;-72
2022/07/27 06:54:33;;;;;;;1.23;0.77;;;20.10;67.60;;;;;;4982798;28;20030;-72
2022/07/27 06:56:59;;;;;;;1.65;0.70;;;20.10;67.30;;;;;;4980449;28;20065;-72
2022/07/27 06:59:24;;;;;;;2.72;0.90;;;20.20;67.20;;;;;;4970566;28;20165;-72
2022/07/27 07:01:50;;;;;;;7.07;0.88;;;20.20;66.80;;;;;;4967723;28;20054;-73
2022/07/27 07:04:15;;;;;;;1.77;0.88;;;20.20;66.50;;;;;;4968861;28;20026;-72
2022/07/27 07:06:41;;;;;;;3.75;0.60;;;20.30;66.50;;;;;;4965705;28;20037;-73
2022/07/27 07:09:06;;;;;;;1.23;0.90;;;20.30;66.20;;;;;;4950098;28;20764;-71
2022/07/27 07:11:32;;;;;;;2.00;0.77;;;20.30;66.00;;;;;;4971405;28;20042;-72
2022/07/27 07:13:58;;;;;;;1.45;0.68;;;20.40;65.80;;;;;;4979433;28;20084;-72
2022/07/27 07:16:23;;;;;;;2.72;0.80;;;20.40;65.60;;;;;;4951329;28;20054;-71
2022/07/27 07:18:49;;;;;;;3.05;0.98;;;20.50;65.30;;;;;;4967656;28;20042;-71
2022/07/27 07:21:15;;;;;;;5.13;0.82;;;20.60;65.90;;;;;;4986062;28;20042;-73
2022/07/27 07:23:40;;;;;;;1.90;0.90;;;20.60;64.80;;;;;;4972018;28;20121;-72
2022/07/27 07:26:06;;;;;;;4.72;1.35;;;20.70;64.70;;;;;;4978461;28;20101;-72
2022/07/27 07:28:31;;;;;;;1.40;1.13;;;20.80;64.70;;;;;;4987581;28;20411;-72
2022/07/27 07:30:57;;;;;;;2.50;0.80;;;20.80;64.50;;;;;;4970604;28;20045;-73
2022/07/27 07:33:22;;;;;;;1.27;0.75;;;21.00;64.20;;;;;;4964667;28;20034;-73
2022/07/27 07:35:48;;;;;;;2.92;0.82;;;21.10;64.00;;;;;;4958265;28;20067;-71
2022/07/27 07:38:14;;;;;;;2.30;1.00;;;21.10;63.60;;;;;;4969793;28;20050;-72
2022/07/27 07:40:39;;;;;;;1.67;0.60;;;21.30;63.40;;;;;;4983818;28;20034;-72
2022/07/27 07:43:05;;;;;;;3.55;0.80;;;21.40;63.00;;;;;;4934767;28;20043;-73
2022/07/27 07:45:32;;;;;;;1.88;0.82;;;21.60;62.80;;;;;;4954347;28;20043;-73
2022/07/27 07:47:57;;;;;;;6.43;1.20;;;21.70;62.40;;;;;;4969383;28;20408;-72
2022/07/27 07:50:23;;;;;;;2.05;0.55;;;21.90;62.10;;;;;;4975911;28;20041;-73
2022/07/27 07:52:52;;;;;;;2.08;0.80;;;22.00;61.60;;;;;;4946433;28;20508;-72
2022/07/27 07:55:19;;;;;;;3.08;0.88;;;22.10;61.20;;;;;;4967949;28;20053;-72
2022/07/27 07:57:45;;;;;;;7.35;1.00;;;22.20;60.90;;;;;;4958330;28;20042;-72
2022/07/27 08:00:11;;;;;;;4.43;1.00;;;22.30;60.60;;;;;;4965785;28;20054;-73
2022/07/27 08:02:46;;;;;;;2.15;0.55;;;22.40;60.30;;;;;;4976715;28;20046;-73
2022/07/27 08:05:12;;;;;;;2.10;1.00;;;22.50;59.60;;;;;;4960062;28;20434;-72
2022/07/27 08:07:38;;;;;;;2.10;0.70;;;22.60;59.60;;;;;;4954626;28;20035;-71
2022/07/27 08:10:05;;;;;;;1.80;0.68;;;22.70;59.40;;;;;;4983337;28;20066;-72
2022/07/27 08:12:30;;;;;;;1.92;0.90;;;22.70;59.20;;;;;;4958367;28;20051;-72
2022/07/27 08:14:56;;;;;;;4.93;0.90;;;22.90;59.10;;;;;;4959947;28;20039;-72
2022/07/27 08:17:21;;;;;;;1.58;0.75;;;23.00;59.50;;;;;;4967704;28;20030;-72
2022/07/27 08:19:47;;;;;;;1.63;0.65;;;23.10;59.10;;;;;;4959906;28;20074;-72
2022/07/27 08:22:12;;;;;;;2.80;0.90;;;23.10;58.20;;;;;;4982457;28;20073;-72
2022/07/27 08:24:38;;;;;;;0.75;0.60;;;23.10;58.10;;;;;;4974372;28;20120;-72
2022/07/27 08:27:04;;;;;;;3.47;0.80;;;23.30;58.00;;;;;;4954679;28;20035;-72
2022/07/27 08:29:29;;;;;;;2.95;0.70;;;23.40;57.80;;;;;;4955879;28;20514;-72
2022/07/27 08:31:55;;;;;;;2.13;0.75;;;23.50;57.50;;;;;;4966180;28;20100;-75
2022/07/27 08:34:20;;;;;;;1.90;0.73;;;23.70;57.20;;;;;;4966394;28;20039;-72
2022/07/27 08:36:46;;;;;;;1.02;0.47;;;23.80;57.00;;;;;;4948775;28;20050;-72
2022/07/27 08:39:11;;;;;;;1.83;0.65;;;23.90;56.80;;;;;;4961535;28;20135;-71
2022/07/27 08:41:38;;;;;;;2.72;0.98;;;24.10;56.70;;;;;;4980162;28;20093;-72
2022/07/27 08:44:05;;;;;;;2.00;0.68;;;24.30;56.30;;;;;;4954298;28;20146;-71
2022/07/27 08:46:31;;;;;;;3.45;0.90;;;24.40;56.10;;;;;;4950635;28;20030;-72
2022/07/27 08:48:58;;;;;;;1.67;0.80;;;24.60;55.80;;;;;;4985592;28;20526;-73
2022/07/27 08:51:24;;;;;;;2.85;0.80;;;24.80;55.30;;;;;;4976684;28;20065;-72
2022/07/27 08:53:49;;;;;;;2.25;0.90;;;25.00;55.10;;;;;;4960540;28;20059;-71
2022/07/27 08:56:15;;;;;;;2.15;0.75;;;25.10;54.60;;;;;;4977178;28;20079;-71
2022/07/27 08:58:43;;;;;;;2.53;0.50;;;25.20;54.40;;;;;;4970274;28;20415;-72
2022/07/27 09:01:09;;;;;;;1.77;0.57;;;25.30;54.20;;;;;;4957153;28;20062;-73
2022/07/27 09:03:34;;;;;;;1.15;0.52;;;25.60;54.00;;;;;;4975456;28;20061;-71
2022/07/27 09:06:00;;;;;;;2.00;0.68;;;25.70;53.60;;;;;;4954570;28;20057;-71
2022/07/27 09:08:27;;;;;;;2.03;0.70;;;25.80;53.30;;;;;;4949341;28;20112;-71
2022/07/27 09:10:54;;;;;;;1.48;0.70;;;26.00;53.00;;;;;;4971435;28;20106;-71
2022/07/27 09:13:26;;;;;;;3.25;0.88;;;26.20;52.50;;;;;;4965565;28;20167;-71
2022/07/27 09:16:00;;;;;;;3.10;0.80;;;26.20;52.00;;;;;;4991669;28;20047;-71
2022/07/27 09:18:28;;;;;;;1.55;0.68;;;26.30;51.90;;;;;;4979445;28;20042;-72
2022/07/27 09:21:15;;;;;;;3.40;0.70;;;26.30;51.70;;;;;;4964213;28;20048;-72
2022/07/27 09:24:05;;;;;;;1.85;0.50;;;26.30;51.00;;;;;;4989605;28;20042;-72
2022/07/27 09:26:31;;;;;;;1.85;0.70;;;26.30;51.00;;;;;;4959438;28;20641;-73
2022/07/27 09:29:07;;;;;;;2.35;0.70;;;26.40;51.20;;;;;;4951510;28;20042;-71
2022/07/27 09:31:46;;;;;;;2.05;0.75;;;26.50;51.10;;;;;;4972125;28;20121;-72
2022/07/27 09:34:12;;;;;;;1.80;0.90;;;26.70;50.50;;;;;;4973453;28;20041;-72
2022/07/27 09:36:51;;;;;;;1.77;0.52;;;26.80;50.50;;;;;;4934446;28;20030;-70
2022/07/27 09:39:18;;;;;;;2.10;0.75;;;27.00;49.00;;;;;;4956521;28;20041;-72
2022/07/27 09:41:46;;;;;;;3.17;0.70;;;27.00;49.50;;;;;;4950357;28;20768;-72
2022/07/27 09:44:12;;;;;;;1.45;0.50;;;27.00;49.40;;;;;;4986928;28;20470;-73
2022/07/27 09:46:39;;;;;;;2.58;0.65;;;27.00;49.50;;;;;;4974902;28;20500;-71
2022/07/27 09:49:05;;;;;;;1.25;0.73;;;27.20;49.40;;;;;;4961098;28;20109;-71
2022/07/27 09:51:30;;;;;;;2.13;0.68;;;27.30;49.30;;;;;;4986799;28;20108;-72
2022/07/27 09:53:58;;;;;;;2.10;0.77;;;27.50;48.90;;;;;;4962573;28;20063;-71
2022/07/27 09:56:30;;;;;;;0.93;0.55;;;27.60;48.60;;;;;;4968801;28;20046;-71
2022/07/27 09:59:00;;;;;;;2.80;0.77;;;27.70;48.30;;;;;;4963940;28;20068;-72
2022/07/27 10:01:27;;;;;;;3.33;0.87;;;27.80;47.80;;;;;;4945742;28;20041;-71
2022/07/27 10:03:54;;;;;;;3.72;0.68;;;27.70;47.90;;;;;;4953709;28;20497;-71
2022/07/27 10:06:21;;;;;;;1.70;0.88;;;27.70;47.80;;;;;;4968057;28;20687;-71
2022/07/27 10:08:47;;;;;;;3.35;0.85;;;27.80;47.80;;;;;;4949903;28;20620;-73
2022/07/27 10:11:13;;;;;;;3.25;0.73;;;27.90;47.50;;;;;;4942557;28;20042;-71
2022/07/27 10:13:38;;;;;;;0.95;0.60;;;27.90;47.30;;;;;;4937277;28;20035;-71
2022/07/27 10:16:05;;;;;;;2.05;0.80;;;27.80;47.00;;;;;;4978384;28;20061;-71
2022/07/27 10:18:47;;;;;;;1.77;0.70;;;27.70;47.00;;;;;;4975695;28;20061;-71
2022/07/27 10:21:13;;;;;;;3.45;0.90;;;27.80;46.40;;;;;;4969946;28;20046;-71
2022/07/27 10:23:38;;;;;;;1.55;0.80;;;27.80;46.70;;;;;;4944954;28;20411;-71
2022/07/27 10:26:25;;;;;;;1.38;0.60;;;27.90;46.60;;;;;;4945492;28;20062;-73
2022/07/27 10:29:00;;;;;;;2.25;0.80;;;27.90;46.10;;;;;;4967725;28;20035;-72
2022/07/27 10:31:51;;;;;;;2.13;1.30;;;27.90;46.50;;;;;;4942669;28;20067;-71
2022/07/27 10:34:40;;;;;;;16.88;1.88;;;27.80;45.10;;;;;;4950838;28;20049;-70
2022/07/27 10:37:10;;;;;;;2.97;0.88;;;27.50;45.60;;;;;;4935585;28;20031;-72
2022/07/27 10:39:41;;;;;;;1.85;0.98;;;27.40;46.00;;;;;;4970617;28;20034;-71
2022/07/27 10:42:20;;;;;;;1.55;0.70;;;27.30;46.00;;;;;;4954648;28;20082;-72
2022/07/27 10:44:59;;;;;;;1.05;0.73;;;27.30;45.70;;;;;;4965838;28;20118;-71
2022/07/27 10:47:36;;;;;;;3.03;0.70;;;27.30;45.60;;;;;;4959139;28;20042;-71
2022/07/27 10:50:14;;;;;;;3.15;0.95;;;27.30;45.90;;;;;;4941811;28;20083;-71
2022/07/27 10:52:44;;;;;;;1.42;0.50;;;27.30;45.40;;;;;;4967245;28;20359;-72
2022/07/27 10:55:37;;;;;;;1.23;0.57;;;27.20;45.80;;;;;;4933886;28;20039;-72
2022/07/27 10:58:08;;;;;;;1.50;0.50;;;27.20;45.80;;;;;;4964544;28;20109;-72
2022/07/27 11:00:48;;;;;;;2.20;0.77;;;27.20;45.90;;;;;;4937879;28;20051;-72
2022/07/27 11:03:20;;;;;;;1.60;0.90;;;27.20;45.40;;;;;;4966210;28;20523;-71
2022/07/27 11:05:56;;;;;;;1.83;0.65;;;27.30;45.60;;;;;;4953285;28;20074;-71
2022/07/27 11:08:29;;;;;;;4.32;0.98;;;27.20;45.40;;;;;;4941449;28;20030;-71
2022/07/27 11:10:54;;;;;;;3.65;0.60;;;27.20;45.40;;;;;;4966472;28;20054;-72
2022/07/27 11:13:21;;;;;;;4.68;0.82;;;27.30;45.50;;;;;;4945967;28;20113;-72
2022/07/27 11:15:51;;;;;;;4.93;0.88;;;27.50;45.50;;;;;;4956266;28;20046;-71
2022/07/27 11:18:17;;;;;;;1.63;0.65;;;27.70;45.20;;;;;;4939046;28;20108;-71
2022/07/27 11:20:42;;;;;;;2.08;0.75;;;27.90;45.10;;;;;;4962095;28;20043;-71
2022/07/27 11:23:18;;;;;;;0.88;0.60;;;28.00;45.00;;;;;;4954275;28;20040;-72
2022/07/27 11:25:59;;;;;;;2.65;0.70;;;28.20;44.70;;;;;;4949005;28;20338;-72
2022/07/27 11:28:31;;;;;;;;;;;28.40;44.30;;;;;;4923616;28;20471;-72
2022/07/27 11:30:57;;;;;;;2.30;0.60;;;28.50;44.80;;;;;;4973071;28;19914;-72
2022/07/27 11:33:23;;;;;;;2.00;0.85;;;28.60;44.60;;;;;;4962725;28;20496;-72
2022/07/27 11:35:56;;;;;;;3.40;0.68;;;28.80;44.30;;;;;;4964097;28;20045;-73
2022/07/27 11:38:22;;;;;;;5.10;1.00;;;28.90;43.40;;;;;;4985307;28;20039;-72
2022/07/27 11:40:50;;;;;;;2.58;0.68;;;29.00;43.50;;;;;;4987968;28;20035;-72
2022/07/27 11:43:34;;;;;;;2.20;0.90;;;29.10;43.30;;;;;;4955545;28;20035;-72
2022/07/27 11:46:24;;;;;;;1.42;0.65;;;29.10;42.30;;;;;;4952496;28;20035;-73
2022/07/27 11:48:59;;;;;;;1.83;0.70;;;29.10;42.50;;;;;;4945425;28;20042;-73
2022/07/27 11:51:24;;;;;;;2.80;0.60;;;29.10;43.00;;;;;;4972252;28;20042;-72
2022/07/27 11:53:59;;;;;;;1.08;0.50;;;29.20;42.80;;;;;;4998610;28;20146;-73
2022/07/27 11:56:25;;;;;;;2.08;0.60;;;29.30;42.00;;;;;;4984188;28;20053;-72
2022/07/27 11:59:06;;;;;;;2.13;0.70;;;29.10;42.20;;;;;;4989185;28;20038;-72
2022/07/27 12:01:34;;;;;;;1.65;0.60;;;29.10;42.00;;;;;;4963292;28;20038;-73
2022/07/27 12:04:05;;;;;;;1.48;0.60;;;29.20;42.10;;;;;;4971337;28;20045;-72
2022/07/27 12:06:31;;;;;;;2.40;0.90;;;29.40;41.70;;;;;;4988190;28;20469;-72
2022/07/27 12:08:57;;;;;;;1.08;0.80;;;29.50;41.30;;;;;;4962782;28;20038;-73
2022/07/27 12:11:52;;;;;;;1.27;0.88;;;29.50;41.00;;;;;;4921842;28;20126;-72
2022/07/27 12:14:18;;;;;;;2.40;1.10;;;29.50;40.50;;;;;;4957829;28;20088;-73
2022/07/27 12:16:44;;;;;;;3.00;0.82;;;29.40;41.00;;;;;;4969941;28;20136;-72
2022/07/27 12:19:09;;;;;;;2.20;1.00;;;29.30;40.80;;;;;;4965354;28;20118;-72
2022/07/27 12:21:35;;;;;;;4.20;1.05;;;29.20;40.70;;;;;;4957977;28;20126;-73
2022/07/27 12:24:00;;;;;;;1.73;0.63;;;29.10;40.60;;;;;;4945474;28;20039;-71
2022/07/27 12:26:26;;;;;;;2.58;0.90;;;29.10;40.60;;;;;;4961337;28;20117;-72
2022/07/27 12:29:11;;;;;;;2.00;0.85;;;29.00;40.60;;;;;;4949790;28;20039;-72
2022/07/27 12:31:37;;;;;;;1.25;0.60;;;29.00;40.10;;;;;;4931133;28;20059;-72
2022/07/27 12:34:05;;;;;;;3.30;0.70;;;28.90;40.70;;;;;;4963509;28;20113;-71
2022/07/27 12:36:31;;;;;;;4.30;0.90;;;28.80;40.60;;;;;;4965828;28;20031;-72
2022/07/27 12:38:57;;;;;;;4.38;1.20;;;28.70;40.70;;;;;;4948832;28;20031;-71
2022/07/27 12:41:26;;;;;;;3.05;1.10;;;28.70;40.60;;;;;;4938341;28;20057;-72
2022/07/27 12:44:07;;;;;;;2.63;1.00;;;28.60;40.30;;;;;;4957112;28;20145;-72
2022/07/27 12:46:32;;;;;;;2.22;0.80;;;28.50;40.10;;;;;;4963546;28;20050;-71
2022/07/27 12:48:58;;;;;;;1.48;0.80;;;28.50;40.50;;;;;;4951086;28;20042;-71
2022/07/27 12:51:24;;;;;;;3.97;0.90;;;28.50;40.20;;;;;;4962334;28;20058;-73